createdAt,value
2019-05-14T00:00:55.060Z,3.30
2019-05-14T00:03:24.775Z,3.37
2019-05-14T00:05:54.568Z,3.77
2019-05-14T00:08:24.390Z,3.10
2019-05-14T00:10:54.188Z,3.60
2019-05-14T00:13:23.983Z,3.30
2019-05-14T00:15:53.703Z,2.80
2019-05-14T00:18:25.740Z,3.40
2019-05-14T00:20:55.515Z,3.03
2019-05-14T00:23:25.332Z,3.00
2019-05-14T00:25:55.121Z,3.30
2019-05-14T00:28:24.912Z,3.50
2019-05-14T00:30:54.756Z,3.27
2019-05-14T00:33:24.629Z,3.20
2019-05-14T00:35:54.418Z,3.03
2019-05-14T00:38:24.252Z,2.80
2019-05-14T00:40:53.957Z,3.20
2019-05-14T00:43:23.726Z,3.50
2019-05-14T00:45:53.578Z,2.90
2019-05-14T00:48:23.374Z,3.30
2019-05-14T00:50:53.129Z,3.00
2019-05-14T00:53:22.908Z,3.13
2019-05-14T00:55:52.814Z,2.80
2019-05-14T00:58:22.699Z,2.87
2019-05-14T01:00:52.762Z,3.23
2019-05-14T01:03:22.882Z,2.73
2019-05-14T01:05:53.685Z,3.27
2019-05-14T01:08:23.556Z,3.30
2019-05-14T01:10:54.189Z,3.23
2019-05-14T01:13:24.005Z,2.80
2019-05-14T01:15:53.818Z,3.33
2019-05-14T01:18:23.578Z,2.73
2019-05-14T01:20:53.488Z,3.27
2019-05-14T01:23:23.341Z,2.83
2019-05-14T01:25:53.136Z,3.23
2019-05-14T01:28:22.884Z,2.83
2019-05-14T01:30:52.821Z,2.80
2019-05-14T01:33:22.686Z,3.17
2019-05-14T01:35:52.474Z,3.27
2019-05-14T01:38:22.375Z,2.50
2019-05-14T01:40:52.577Z,2.80
2019-05-14T01:43:22.484Z,2.90
2019-05-14T01:45:52.603Z,2.63
2019-05-14T01:48:22.590Z,2.83
2019-05-14T01:50:52.380Z,2.73
2019-05-14T01:53:22.206Z,2.33
2019-05-14T01:55:52.256Z,2.57
2019-05-14T01:58:22.232Z,2.60
2019-05-14T02:00:52.561Z,2.53
2019-05-14T02:03:22.549Z,2.47
2019-05-14T02:05:52.330Z,2.40
2019-05-14T02:08:22.062Z,2.20
2019-05-14T02:10:52.631Z,2.60
2019-05-14T02:13:22.982Z,2.73
2019-05-14T02:15:52.799Z,2.60
2019-05-14T02:18:22.619Z,2.20
2019-05-14T02:20:52.488Z,2.20
2019-05-14T02:23:22.839Z,3.03
2019-05-14T02:25:52.828Z,2.50
2019-05-14T02:28:22.677Z,2.60
2019-05-14T02:30:57.915Z,2.23
2019-05-14T02:33:23.955Z,2.17
2019-05-14T02:35:53.748Z,2.43
2019-05-14T02:38:23.494Z,2.30
2019-05-14T02:40:53.261Z,2.57
2019-05-14T02:43:23.017Z,2.40
2019-05-14T02:46:09.053Z,2.50
2019-05-14T02:48:24.441Z,3.10
2019-05-14T02:50:54.307Z,2.70
2019-05-14T02:53:24.110Z,2.77
2019-05-14T02:55:53.986Z,2.20
2019-05-14T02:58:23.824Z,2.63
2019-05-14T03:00:53.672Z,2.67
2019-05-14T03:03:23.523Z,2.53
2019-05-14T03:05:53.417Z,2.60
2019-05-14T03:08:23.152Z,2.67
2019-05-14T03:10:52.995Z,3.37
2019-05-14T03:13:22.930Z,2.63
2019-05-14T03:15:52.761Z,2.87
2019-05-14T03:18:22.637Z,2.63
2019-05-14T03:20:52.595Z,2.73
2019-05-14T03:23:23.247Z,2.57
2019-05-14T03:25:53.706Z,2.93
2019-05-14T03:28:23.670Z,3.00
2019-05-14T03:30:53.651Z,2.80
2019-05-14T03:33:23.548Z,3.00
2019-05-14T03:36:05.626Z,2.50
2019-05-14T03:38:24.759Z,3.07
2019-05-14T03:40:54.529Z,2.77
2019-05-14T03:43:25.650Z,2.77
2019-05-14T03:45:58.998Z,3.37
2019-05-14T03:48:29.669Z,2.53
2019-05-14T03:51:00.255Z,2.83
2019-05-14T03:53:30.441Z,3.47
2019-05-14T03:56:01.167Z,2.77
2019-05-14T03:58:31.082Z,3.20
2019-05-14T04:01:02.377Z,2.73
2019-05-14T04:03:33.014Z,3.00
2019-05-14T04:06:03.454Z,3.10
2019-05-14T04:08:38.896Z,2.60
2019-05-14T04:11:09.595Z,3.03
2019-05-14T04:13:41.728Z,2.80
2019-05-14T04:16:14.525Z,2.97
2019-05-14T04:18:50.126Z,2.90
2019-05-14T04:21:22.416Z,3.30
2019-05-14T04:23:52.610Z,3.10
2019-05-14T04:26:22.786Z,2.80
2019-05-14T04:28:52.767Z,3.07
2019-05-14T04:31:23.105Z,2.77
2019-05-14T04:33:54.594Z,2.80
2019-05-14T04:36:24.620Z,3.07
2019-05-14T04:38:55.373Z,3.17
2019-05-14T04:41:25.579Z,3.00
2019-05-14T04:43:55.455Z,3.03
2019-05-14T04:46:25.304Z,2.73
2019-05-14T04:48:55.116Z,3.07
2019-05-14T04:51:24.927Z,3.10
2019-05-14T04:53:54.835Z,3.50
2019-05-14T04:56:24.698Z,3.20
2019-05-14T04:58:59.719Z,3.13
2019-05-14T05:01:29.489Z,2.77
2019-05-14T05:03:59.639Z,3.60
2019-05-14T05:06:29.522Z,2.90
2019-05-14T05:08:59.986Z,3.33
2019-05-14T05:11:30.389Z,3.60
2019-05-14T05:14:00.535Z,3.13
2019-05-14T05:16:30.465Z,3.23
2019-05-14T05:19:00.241Z,3.57
2019-05-14T05:21:29.980Z,3.17
2019-05-14T05:23:59.683Z,3.70
2019-05-14T05:26:29.527Z,3.30
2019-05-14T05:29:06.328Z,3.17
2019-05-14T05:31:30.822Z,3.50
2019-05-14T05:34:00.677Z,3.40
2019-05-14T05:36:31.740Z,3.30
2019-05-14T05:39:01.522Z,3.60
2019-05-14T05:41:31.376Z,3.57
2019-05-14T05:44:01.156Z,3.10
2019-05-14T05:46:31.029Z,3.67
2019-05-14T05:49:00.826Z,3.43
2019-05-14T05:51:30.662Z,3.47
2019-05-14T05:54:00.428Z,3.17
2019-05-14T05:56:30.244Z,3.40
2019-05-14T05:59:00.631Z,3.50
2019-05-14T06:01:41.818Z,3.37
2019-05-14T06:04:02.366Z,3.07
2019-05-14T06:06:32.221Z,4.07
2019-05-14T06:09:02.197Z,3.60
2019-05-14T06:11:31.964Z,3.10
2019-05-14T06:14:01.821Z,2.97
2019-05-14T06:16:31.719Z,3.03
2019-05-14T06:19:01.677Z,3.00
2019-05-14T06:21:31.552Z,3.30
2019-05-14T06:24:03.034Z,3.67
2019-05-14T06:26:33.000Z,3.77
2019-05-14T06:29:02.894Z,3.70
2019-05-14T06:31:33.059Z,3.77
2019-05-14T06:34:02.903Z,3.67
2019-05-14T06:36:32.713Z,3.43
2019-05-14T06:39:02.547Z,3.40
2019-05-14T06:41:32.420Z,3.90
2019-05-14T06:44:02.174Z,3.60
2019-05-14T06:46:31.975Z,3.90
2019-05-14T06:49:01.820Z,3.60
2019-05-14T06:51:31.619Z,3.00
2019-05-14T06:54:01.498Z,3.20
2019-05-14T06:56:31.382Z,3.60
2019-05-14T06:59:01.178Z,3.23
2019-05-14T07:01:31.008Z,3.57
2019-05-14T07:04:00.739Z,3.33
2019-05-14T07:06:30.563Z,3.23
2019-05-14T07:09:01.713Z,3.73
2019-05-14T07:11:31.565Z,3.70
2019-05-14T07:14:01.363Z,3.53
2019-05-14T07:16:31.162Z,3.93
2019-05-14T07:19:01.018Z,4.23
2019-05-14T07:21:30.835Z,4.20
2019-05-14T07:24:00.673Z,3.70
2019-05-14T07:26:30.410Z,3.70
2019-05-14T07:29:00.184Z,3.90
2019-05-14T07:31:30.003Z,3.70
2019-05-14T07:33:59.884Z,3.77
2019-05-14T07:36:29.653Z,3.87
2019-05-14T07:39:00.259Z,3.80
2019-05-14T07:41:30.488Z,3.67
2019-05-14T07:44:00.244Z,3.60
2019-05-14T07:46:30.416Z,3.40
2019-05-14T07:49:08.135Z,3.23
2019-05-14T07:51:31.770Z,3.43
2019-05-14T07:56:30.310Z,3.50
2019-05-14T07:59:02.096Z,3.27
2019-05-14T08:01:31.542Z,3.33
2019-05-14T08:04:01.390Z,3.20
2019-05-14T08:06:31.211Z,3.40
2019-05-14T08:09:01.124Z,3.53
2019-05-14T08:11:30.937Z,3.70
2019-05-14T08:14:00.567Z,3.10
2019-05-14T08:16:30.347Z,2.93
2019-05-14T08:19:00.347Z,3.47
2019-05-14T08:21:30.271Z,3.20
2019-05-14T08:24:00.131Z,3.20
2019-05-14T08:26:29.774Z,3.40
2019-05-14T08:28:59.494Z,3.40
2019-05-14T08:31:29.456Z,3.93
2019-05-14T08:33:59.302Z,4.10
2019-05-14T08:36:28.978Z,3.07
2019-05-14T08:38:58.883Z,3.27
2019-05-14T08:41:28.948Z,3.40
2019-05-14T08:43:59.672Z,3.23
2019-05-14T08:46:29.540Z,3.33
2019-05-14T08:48:59.346Z,3.00
2019-05-14T08:51:29.754Z,3.73
2019-05-14T08:53:59.735Z,3.33
2019-05-14T08:56:29.664Z,3.20
2019-05-14T08:58:59.479Z,3.40
2019-05-14T09:01:29.731Z,3.17
2019-05-14T09:03:59.813Z,2.73
2019-05-14T09:06:29.780Z,3.17
2019-05-14T09:08:59.790Z,3.37
2019-05-14T09:11:35.696Z,3.70
2019-05-14T09:14:01.183Z,3.20
2019-05-14T09:16:42.794Z,3.37
2019-05-14T09:19:02.355Z,3.17
2019-05-14T09:21:32.238Z,2.97
2019-05-14T09:24:02.009Z,2.77
2019-05-14T09:26:31.782Z,2.60
2019-05-14T09:29:17.010Z,2.23
2019-05-14T09:31:33.110Z,2.50
2019-05-14T09:34:02.859Z,2.87
2019-05-14T09:36:32.702Z,3.03
2019-05-14T09:39:02.988Z,2.87
2019-05-14T09:41:32.823Z,3.20
2019-05-14T09:44:02.694Z,3.30
2019-05-14T09:46:32.470Z,2.90
2019-05-14T09:49:02.344Z,2.80
2019-05-14T09:51:32.128Z,2.87
2019-05-14T09:54:01.975Z,3.10
2019-05-14T09:56:31.776Z,2.87
2019-05-14T09:59:01.650Z,3.00
2019-05-14T10:01:31.378Z,2.70
2019-05-14T10:04:01.256Z,2.87
2019-05-14T10:06:31.133Z,2.70
2019-05-14T10:09:00.915Z,2.50
2019-05-14T10:11:30.643Z,2.43
2019-05-14T10:14:00.454Z,2.47
2019-05-14T10:16:30.315Z,2.30
2019-05-14T10:19:00.115Z,2.60
2019-05-14T10:21:29.922Z,2.47
2019-05-14T10:23:59.741Z,2.77
2019-05-14T10:26:29.569Z,2.43
2019-05-14T10:28:59.237Z,2.70
2019-05-14T10:31:29.218Z,2.47
2019-05-14T10:33:59.348Z,2.60
2019-05-14T10:36:30.008Z,2.50
2019-05-14T10:39:00.110Z,2.50
2019-05-14T10:41:29.899Z,2.60
2019-05-14T10:43:59.732Z,2.50
2019-05-14T10:46:29.537Z,2.93
2019-05-14T10:49:14.701Z,2.80
2019-05-14T10:51:30.737Z,2.53
2019-05-14T10:54:00.464Z,2.30
2019-05-14T10:56:30.258Z,3.10
2019-05-14T10:59:00.042Z,3.00
2019-05-14T11:01:29.827Z,2.87
2019-05-14T11:03:59.639Z,2.87
2019-05-14T11:06:29.579Z,2.70
2019-05-14T11:08:59.367Z,3.37
2019-05-14T11:11:29.482Z,3.13
2019-05-14T11:13:59.295Z,2.63
2019-05-14T11:16:29.060Z,2.20
2019-05-14T11:18:58.875Z,2.23
2019-05-14T11:21:30.304Z,2.17
2019-05-14T11:24:00.242Z,2.40
2019-05-14T11:26:29.969Z,2.23
2019-05-14T11:28:59.755Z,2.23
2019-05-14T11:31:34.096Z,2.30
2019-05-14T11:34:01.018Z,2.30
2019-05-14T11:36:30.815Z,2.17
2019-05-14T11:39:03.862Z,2.50
2019-05-14T11:41:32.095Z,2.53
2019-05-14T11:44:01.899Z,2.50
2019-05-14T11:46:43.747Z,2.53
2019-05-14T11:49:03.094Z,2.53
2019-05-14T11:51:58.863Z,2.10
2019-05-14T11:54:04.504Z,2.77
2019-05-14T11:56:34.277Z,2.23
2019-05-14T11:59:04.202Z,2.27
2019-05-14T12:01:34.045Z,2.83
2019-05-14T12:04:03.910Z,2.50
2019-05-14T12:06:33.719Z,2.67
2019-05-14T12:09:03.747Z,2.40
2019-05-14T12:11:33.607Z,2.17
2019-05-14T12:14:03.452Z,2.70
2019-05-14T12:16:33.259Z,2.27
2019-05-14T12:19:03.206Z,2.23
2019-05-14T12:21:32.978Z,2.50
2019-05-14T12:24:04.953Z,2.27
2019-05-14T12:26:34.283Z,2.30
2019-05-14T12:29:04.116Z,2.07
2019-05-14T12:31:33.858Z,2.27
2019-05-14T12:34:03.662Z,2.30
2019-05-14T12:36:33.502Z,2.87
2019-05-14T12:39:04.447Z,3.03
2019-05-14T12:41:34.301Z,2.60
2019-05-14T12:44:04.332Z,2.25
2019-05-14T12:46:34.163Z,2.13
2019-05-14T12:49:03.984Z,2.50
2019-05-14T12:51:33.813Z,2.93
2019-05-14T12:54:03.659Z,3.10
2019-05-14T12:56:33.452Z,2.80
2019-05-14T12:59:03.259Z,2.97
2019-05-14T13:01:33.106Z,2.70
2019-05-14T13:04:02.874Z,2.73
2019-05-14T13:06:32.628Z,2.37
2019-05-14T13:09:02.578Z,2.73
2019-05-14T13:11:32.400Z,2.97
2019-05-14T13:14:02.146Z,3.17
2019-05-14T13:16:32.012Z,2.87
2019-05-14T13:19:01.933Z,2.20
2019-05-14T13:21:31.834Z,2.70
2019-05-14T13:24:01.678Z,2.40
2019-05-14T13:26:31.500Z,2.50
2019-05-14T13:29:01.325Z,2.50
2019-05-14T13:31:31.149Z,2.83
2019-05-14T13:34:00.890Z,3.10
2019-05-14T13:36:30.655Z,2.97
2019-05-14T13:39:00.381Z,2.80
2019-05-14T13:41:30.170Z,2.73
2019-05-14T13:44:15.937Z,2.50
2019-05-14T13:46:31.522Z,2.30
2019-05-14T13:49:01.327Z,2.93
2019-05-14T13:51:33.543Z,3.13
2019-05-14T13:54:02.571Z,2.70
2019-05-14T13:56:32.287Z,2.80
2019-05-14T13:59:02.123Z,3.10
2019-05-14T14:01:31.938Z,2.77
2019-05-14T14:04:10.239Z,2.87
2019-05-14T14:06:33.250Z,2.67
2019-05-14T14:09:04.757Z,2.63
2019-05-14T14:11:34.605Z,2.60
2019-05-14T14:14:04.496Z,2.67
2019-05-14T14:16:34.354Z,2.87
2019-05-14T14:19:04.042Z,2.80
2019-05-14T14:21:33.888Z,2.67
2019-05-14T14:24:03.759Z,2.43
2019-05-14T14:26:33.556Z,2.33
2019-05-14T14:29:03.256Z,2.90
2019-05-14T14:31:33.137Z,3.07
2019-05-14T14:34:02.935Z,2.70
2019-05-14T14:36:32.690Z,2.97
2019-05-14T14:39:02.923Z,2.50
2019-05-14T14:41:32.714Z,2.50
2019-05-14T14:44:02.546Z,2.37
2019-05-14T14:46:32.341Z,2.70
2019-05-14T14:49:02.836Z,2.47
2019-05-14T14:51:32.886Z,2.30
2019-05-14T14:54:10.623Z,2.50
2019-05-14T14:56:34.155Z,2.50
2019-05-14T14:59:04.052Z,2.73
2019-05-14T15:01:33.814Z,3.20
2019-05-14T15:04:03.606Z,3.77
2019-05-14T15:06:33.427Z,3.30
2019-05-14T15:09:03.782Z,2.73
2019-05-14T15:11:33.688Z,3.67
2019-05-14T15:14:03.460Z,3.20
2019-05-14T15:16:33.695Z,3.50
2019-05-14T15:19:03.507Z,3.30
2019-05-14T15:21:33.358Z,3.20
2019-05-14T15:24:11.886Z,3.20
2019-05-14T15:26:34.726Z,3.60
2019-05-14T15:29:04.622Z,3.50
2019-05-14T15:31:34.439Z,3.10
2019-05-14T15:34:04.255Z,3.37
2019-05-14T15:36:33.991Z,4.10
2019-05-14T15:39:05.122Z,3.63
2019-05-14T15:41:35.192Z,3.30
2019-05-14T15:44:05.087Z,3.60
2019-05-14T15:46:34.958Z,3.20
2019-05-14T15:49:05.046Z,3.40
2019-05-14T15:51:39.595Z,4.10
2019-05-14T15:54:35.259Z,4.20
2019-05-14T15:56:45.476Z,4.17
2019-05-14T15:59:23.864Z,3.90
2019-05-14T16:01:57.541Z,4.50
2019-05-14T16:04:31.487Z,4.60
2019-05-14T16:07:04.400Z,4.70
2019-05-14T16:09:40.079Z,4.80
2019-05-14T16:12:10.800Z,5.30
2019-05-14T16:14:43.337Z,5.03
2019-05-14T16:17:15.632Z,5.43
2019-05-14T16:19:45.804Z,5.17
2019-05-14T16:22:19.115Z,5.40
2019-05-14T16:24:56.215Z,5.80
2019-05-14T16:27:29.856Z,5.30
2019-05-14T16:30:01.721Z,6.47
2019-05-14T16:32:42.573Z,6.23
2019-05-14T16:35:21.332Z,6.17
2019-05-14T16:37:49.575Z,6.20
2019-05-14T16:40:20.054Z,5.70
2019-05-14T16:42:49.898Z,5.70
2019-05-14T16:45:21.349Z,5.53
2019-05-14T16:47:51.339Z,5.27
2019-05-14T16:50:22.118Z,5.63
2019-05-14T16:52:53.226Z,5.13
2019-05-14T16:55:27.037Z,5.80
2019-05-14T16:57:54.573Z,5.63
2019-05-14T17:00:24.409Z,6.40
2019-05-14T17:02:54.596Z,5.70
2019-05-14T17:05:24.393Z,5.60
2019-05-14T17:07:54.151Z,6.57
2019-05-14T17:10:24.073Z,6.10
2019-05-14T17:12:57.714Z,6.00
2019-05-14T17:15:25.371Z,6.80
2019-05-14T17:17:55.225Z,7.00
2019-05-14T17:20:24.998Z,7.20
2019-05-14T17:22:54.714Z,7.17
2019-05-14T17:25:27.272Z,6.27
2019-05-14T17:27:55.914Z,7.23
2019-05-14T17:30:28.914Z,6.53
2019-05-14T17:32:58.880Z,6.60
2019-05-14T17:35:29.798Z,7.13
2019-05-14T17:37:59.874Z,7.83
2019-05-14T17:40:31.698Z,7.30
2019-05-14T17:43:04.309Z,7.77
2019-05-14T17:45:38.816Z,7.73
2019-05-14T17:48:05.652Z,7.40
2019-05-14T17:50:38.205Z,6.90
2019-05-14T17:53:14.034Z,7.30
2019-05-14T17:55:51.490Z,6.47
2019-05-14T17:58:38.532Z,7.43
2019-05-14T18:01:11.426Z,7.33
2019-05-14T18:03:45.414Z,7.67
2019-05-14T18:06:20.100Z,7.47
2019-05-14T18:08:55.456Z,7.87
2019-05-14T18:11:30.840Z,6.97
2019-05-14T18:14:03.842Z,7.23
2019-05-14T18:16:33.756Z,8.37
2019-05-14T18:19:03.828Z,8.53
2019-05-14T18:21:33.794Z,8.23
2019-05-14T18:24:07.252Z,8.57
2019-05-14T18:26:38.593Z,8.60
2019-05-14T18:29:11.267Z,8.70
2019-05-14T18:31:53.712Z,8.30
2019-05-14T18:34:23.207Z,8.03
2019-05-14T18:36:52.961Z,13.10
2019-05-14T18:39:24.059Z,9.93
2019-05-14T18:41:55.380Z,9.23
2019-05-14T18:44:25.234Z,11.00
2019-05-14T18:46:55.120Z,8.50
2019-05-14T18:49:24.963Z,8.57
2019-05-14T18:51:59.261Z,8.67
2019-05-14T18:54:30.957Z,9.17
2019-05-14T18:57:03.744Z,11.10
2019-05-14T18:59:35.231Z,8.03
2019-05-14T19:02:08.444Z,8.97
2019-05-14T19:04:38.459Z,9.67
2019-05-14T19:07:09.667Z,8.53
2019-05-14T19:09:39.587Z,7.57
2019-05-14T19:12:10.741Z,7.20
2019-05-14T19:14:40.549Z,7.40
2019-05-14T19:17:10.404Z,7.03
2019-05-14T19:19:40.266Z,7.77
2019-05-14T19:22:10.106Z,8.10
2019-05-14T19:24:40.109Z,7.63
2019-05-14T19:27:10.116Z,8.30
2019-05-14T19:29:39.952Z,8.13
2019-05-14T19:32:09.748Z,8.37
2019-05-14T19:34:39.591Z,7.70
2019-05-14T19:37:09.436Z,7.00
2019-05-14T19:39:39.296Z,7.87
2019-05-14T19:42:09.027Z,8.77
2019-05-14T19:44:40.415Z,8.83
2019-05-14T19:47:10.494Z,8.70
2019-05-14T19:49:40.542Z,7.33
2019-05-14T19:52:11.104Z,8.90
2019-05-14T19:54:40.970Z,7.90
2019-05-14T19:57:11.751Z,8.67
2019-05-14T19:59:41.691Z,8.97
2019-05-14T20:02:11.567Z,9.23
2019-05-14T20:04:41.525Z,9.23
2019-05-14T20:07:11.657Z,8.67
2019-05-14T20:09:42.544Z,8.77
2019-05-14T20:12:12.394Z,8.73
2019-05-14T20:14:42.278Z,9.00
2019-05-14T20:17:12.216Z,9.20
2019-05-14T20:19:42.169Z,8.70
2019-05-14T20:22:11.994Z,8.07
2019-05-14T20:24:41.874Z,8.53
2019-05-14T20:27:12.234Z,7.77
2019-05-14T20:29:42.553Z,7.90
2019-05-14T20:32:12.462Z,7.40
2019-05-14T20:34:42.331Z,8.60
2019-05-14T20:37:12.217Z,8.87
2019-05-14T20:39:42.086Z,7.77
2019-05-14T20:42:12.000Z,8.30
2019-05-14T20:44:43.078Z,7.47
2019-05-14T20:47:13.080Z,6.53
2019-05-14T20:49:43.040Z,6.93
2019-05-14T20:52:14.544Z,6.10
2019-05-14T20:54:44.896Z,6.50
2019-05-14T20:57:24.471Z,6.53
2019-05-14T20:59:48.260Z,6.00
2019-05-14T21:02:18.756Z,5.73
2019-05-14T21:04:54.287Z,6.27
2019-05-14T21:07:20.410Z,5.10
2019-05-14T21:09:50.205Z,5.37
2019-05-14T21:12:20.140Z,5.00
2019-05-14T21:14:50.092Z,5.40
2019-05-14T21:17:20.048Z,4.97
2019-05-14T21:19:49.930Z,6.40
2019-05-14T21:22:29.072Z,5.33
2019-05-14T21:25:00.890Z,5.20
2019-05-14T21:27:44.616Z,5.10
2019-05-14T21:30:03.839Z,4.67
2019-05-14T21:32:33.708Z,5.33
2019-05-14T21:35:03.659Z,4.33
2019-05-14T21:37:44.779Z,5.53
2019-05-14T21:40:18.717Z,5.37
2019-05-14T21:42:52.910Z,4.93
2019-05-14T21:45:24.230Z,5.47
2019-05-14T21:47:59.263Z,5.20
2019-05-14T21:50:30.377Z,4.90
2019-05-14T21:53:08.407Z,5.23
2019-05-14T21:55:41.867Z,4.80
2019-05-14T21:58:12.034Z,4.60
2019-05-14T22:00:48.562Z,4.40
2019-05-14T22:03:20.825Z,4.80
2019-05-14T22:05:53.521Z,4.63
2019-05-14T22:08:24.659Z,4.10
2019-05-14T22:10:54.547Z,4.30
2019-05-14T22:13:24.432Z,4.67
2019-05-14T22:15:58.773Z,4.53
2019-05-14T22:18:30.303Z,5.00
2019-05-14T22:21:00.139Z,4.43
2019-05-14T22:23:29.980Z,4.30
2019-05-14T22:25:59.972Z,3.80
2019-05-14T22:28:30.594Z,4.70
2019-05-14T22:31:02.068Z,5.03
2019-05-14T22:33:31.935Z,4.90
2019-05-14T22:36:05.520Z,5.23
2019-05-14T22:38:38.727Z,3.97
2019-05-14T22:41:11.532Z,4.80
2019-05-14T22:43:40.768Z,4.80
2019-05-14T22:46:11.551Z,5.37
2019-05-14T22:48:45.702Z,4.87
2019-05-14T22:51:18.515Z,4.30
2019-05-14T22:53:51.998Z,4.90
2019-05-14T22:56:25.156Z,4.80
2019-05-14T22:58:58.283Z,4.67
2019-05-14T23:01:32.276Z,4.80
2019-05-14T23:04:04.333Z,4.77
2019-05-14T23:06:38.040Z,4.23
2019-05-14T23:09:08.835Z,5.20
2019-05-14T23:11:38.629Z,4.93
2019-05-14T23:14:18.433Z,4.97
2019-05-14T23:16:49.123Z,5.23
2019-05-14T23:19:20.591Z,5.63
2019-05-14T23:21:50.452Z,5.47
2019-05-14T23:24:22.008Z,5.47
2019-05-14T23:26:51.929Z,4.60
2019-05-14T23:29:22.150Z,4.93
2019-05-14T23:31:54.852Z,4.37
2019-05-14T23:34:24.822Z,4.97
2019-05-14T23:36:58.441Z,4.90
2019-05-14T23:39:28.715Z,5.10
2019-05-14T23:41:59.223Z,5.37
2019-05-14T23:44:29.097Z,4.80
2019-05-14T23:46:59.054Z,4.93
2019-05-14T23:49:28.914Z,5.10
2019-05-14T23:51:58.651Z,4.60
2019-05-14T23:54:29.164Z,4.77
2019-05-14T23:56:59.402Z,5.10
2019-05-14T23:59:29.501Z,5.23
